createdAt,value
2018-06-15T00:03:46.779Z,101118.52
2018-06-15T00:08:49.813Z,101124.29
2018-06-15T00:13:52.860Z,101121.34
2018-06-15T00:18:55.854Z,101116.80
2018-06-15T00:23:58.908Z,101117.19
2018-06-15T00:29:02.043Z,101120.68
2018-06-15T00:34:05.114Z,101124.36
2018-06-15T00:39:10.741Z,101129.02
2018-06-15T00:44:13.789Z,101125.70
2018-06-15T00:49:16.847Z,101126.48
2018-06-15T00:54:19.890Z,101127.31
2018-06-15T00:59:22.953Z,101119.74
2018-06-15T01:04:25.961Z,101117.09
2018-06-15T01:09:29.017Z,101122.01
2018-06-15T01:14:32.066Z,101122.50
2018-06-15T01:19:35.985Z,101122.50
2018-06-15T01:24:40.042Z,101124.73
2018-06-15T01:29:43.102Z,101112.42
2018-06-15T01:34:46.113Z,101116.30
2018-06-15T01:39:49.175Z,101114.11
2018-06-15T01:44:52.213Z,101117.73
2018-06-15T01:49:55.185Z,101120.11
2018-06-15T01:54:58.240Z,101124.09
2018-06-15T02:00:01.274Z,101120.02
2018-06-15T02:05:04.366Z,101121.73
2018-06-15T02:10:07.437Z,101121.53
2018-06-15T02:15:10.485Z,101110.55
2018-06-15T02:20:13.557Z,101114.53
2018-06-15T02:25:16.604Z,101111.87
2018-06-15T02:30:19.643Z,101118.22
2018-06-15T02:35:22.648Z,101126.95
2018-06-15T02:40:25.765Z,101122.56
2018-06-15T02:45:28.832Z,101124.86
2018-06-15T02:50:31.844Z,101126.48
2018-06-15T02:55:34.925Z,101123.04
2018-06-15T03:00:37.999Z,101125.23
2018-06-15T03:05:41.190Z,101130.14
2018-06-15T03:10:44.279Z,101133.76
2018-06-15T03:15:47.301Z,101131.93
2018-06-15T03:20:50.363Z,101128.91
2018-06-15T03:25:53.380Z,101141.33
2018-06-15T03:30:56.478Z,101145.07
2018-06-15T03:35:59.678Z,101144.17
2018-06-15T03:41:02.733Z,101136.41
2018-06-15T03:46:05.740Z,101158.87
2018-06-15T03:51:08.798Z,101156.98
2018-06-15T03:56:11.861Z,101151.47
2018-06-15T04:01:14.854Z,101151.50
2018-06-15T04:06:17.850Z,101160.47
2018-06-15T04:11:20.834Z,101163.11
2018-06-15T04:16:23.846Z,101172.90
2018-06-15T04:21:26.841Z,101182.36
2018-06-15T04:26:29.865Z,101183.61
2018-06-15T04:31:32.925Z,101189.03
2018-06-15T04:36:35.929Z,101188.31
2018-06-15T04:41:39.038Z,101187.91
2018-06-15T04:46:42.126Z,101188.94
2018-06-15T04:51:45.118Z,101193.09
2018-06-15T04:56:48.122Z,101200.14
2018-06-15T05:01:51.134Z,101195.19
2018-06-15T05:06:54.113Z,101203.21
2018-06-15T05:11:57.072Z,101211.30
2018-06-15T05:17:00.166Z,101206.80
2018-06-15T05:22:03.158Z,101207.64
2018-06-15T05:27:06.417Z,101224.77
2018-06-15T05:32:09.401Z,101220.16
2018-06-15T05:37:12.419Z,101225.43
2018-06-15T05:42:15.437Z,101224.84
2018-06-15T05:47:18.442Z,101227.16
2018-06-15T05:52:21.450Z,101237.67
2018-06-15T05:57:24.437Z,101246.55
2018-06-15T06:02:27.438Z,101243.93
2018-06-15T06:07:30.425Z,101246.58
2018-06-15T06:12:33.421Z,101242.06
2018-06-15T06:17:36.415Z,101245.39
2018-06-15T06:22:39.597Z,101250.83
2018-06-15T06:27:42.639Z,101248.66
2018-06-15T06:32:45.691Z,101247.98
2018-06-15T06:37:48.715Z,101252.62
2018-06-15T06:42:51.690Z,101262.62
2018-06-15T06:47:54.685Z,101261.83
2018-06-15T06:52:57.726Z,101268.00
2018-06-15T06:58:00.727Z,101272.88
2018-06-15T07:03:03.732Z,101280.33
2018-06-15T07:08:06.738Z,101277.28
2018-06-15T07:13:09.720Z,101278.40
2018-06-15T07:18:12.984Z,101277.33
2018-06-15T07:23:15.993Z,101281.25
2018-06-15T07:28:19.029Z,101283.88
2018-06-15T07:33:22.087Z,101283.48
2018-06-15T07:38:25.081Z,101284.02
2018-06-15T07:43:28.061Z,101279.09
2018-06-15T07:48:31.095Z,101283.63
2018-06-15T07:53:34.125Z,101277.80
2018-06-15T07:58:37.101Z,101280.34
2018-06-15T08:03:43.611Z,101277.66
2018-06-15T08:08:46.614Z,101278.38
2018-06-15T08:13:49.607Z,101289.92
2018-06-15T08:18:52.706Z,101286.95
2018-06-15T08:23:55.844Z,101291.21
2018-06-15T08:28:58.828Z,101296.81
2018-06-15T08:34:01.861Z,101296.73
2018-06-15T08:39:08.826Z,101298.95
2018-06-15T08:44:11.846Z,101296.81
2018-06-15T08:49:14.829Z,101303.98
2018-06-15T08:54:17.874Z,101303.69
2018-06-15T08:59:20.857Z,101304.90
2018-06-15T09:04:23.937Z,101309.20
2018-06-15T09:09:26.965Z,101298.89
2018-06-15T09:14:30.008Z,101298.80
2018-06-15T09:19:33.014Z,101300.06
2018-06-15T09:24:36.018Z,101296.27
2018-06-15T09:29:39.017Z,101295.36
2018-06-15T09:34:42.023Z,101294.29
2018-06-15T09:39:45.019Z,101295.78
2018-06-15T09:44:48.009Z,101293.57
2018-06-15T09:49:50.957Z,101297.48
2018-06-15T09:54:53.993Z,101294.53
2018-06-15T09:59:56.973Z,101301.63
2018-06-15T10:05:00.035Z,101293.98
2018-06-15T10:10:03.112Z,101304.11
2018-06-15T10:15:06.105Z,101296.36
2018-06-15T10:20:09.434Z,101296.86
2018-06-15T10:25:12.463Z,101295.48
2018-06-15T10:30:15.469Z,101292.54
2018-06-15T10:35:18.486Z,101289.12
2018-06-15T10:40:21.522Z,101289.31
2018-06-15T10:45:24.522Z,101291.64
2018-06-15T10:50:27.505Z,101288.09
2018-06-15T10:55:30.510Z,101285.03
2018-06-15T11:00:33.526Z,101283.21
2018-06-15T11:05:36.534Z,101279.64
2018-06-15T11:10:39.557Z,101279.06
2018-06-15T11:15:42.643Z,101273.53
2018-06-15T11:20:45.645Z,101271.41
2018-06-15T11:25:48.677Z,101265.29
2018-06-15T11:30:51.736Z,101261.27
2018-06-15T11:35:54.747Z,101261.80
2018-06-15T11:40:57.785Z,101264.61
2018-06-15T11:46:00.750Z,101254.92
2018-06-15T11:51:03.758Z,101260.96
2018-06-15T11:56:06.786Z,101255.73
2018-06-15T12:01:09.815Z,101251.59
2018-06-15T12:06:12.833Z,101253.25
2018-06-15T12:11:15.840Z,101259.29
2018-06-15T12:16:18.833Z,101244.77
2018-06-15T12:21:21.835Z,101242.07
2018-06-15T12:26:25.029Z,101241.75
2018-06-15T12:31:28.157Z,101235.31
2018-06-15T12:36:31.166Z,101228.98
2018-06-15T12:41:34.161Z,101223.27
2018-06-15T12:46:37.177Z,101221.50
2018-06-15T12:51:40.162Z,101219.09
2018-06-15T12:56:43.177Z,101212.18
2018-06-15T13:01:46.180Z,101213.23
2018-06-15T13:06:49.174Z,101206.86
2018-06-15T13:11:52.207Z,101205.43
2018-06-15T13:16:55.198Z,101204.15
2018-06-15T13:21:58.182Z,101204.84
2018-06-15T13:27:01.346Z,101210.16
2018-06-15T13:32:04.374Z,101204.94
2018-06-15T13:37:07.402Z,101205.75
2018-06-15T13:42:10.389Z,101204.94
2018-06-15T13:47:13.401Z,101206.41
2018-06-15T13:52:16.397Z,101205.80
2018-06-15T13:57:19.383Z,101208.46
2018-06-15T14:02:22.361Z,101210.78
2018-06-15T14:07:25.562Z,101201.95
2018-06-15T14:12:28.602Z,101199.20
2018-06-15T14:17:31.608Z,101187.77
2018-06-15T14:22:34.582Z,101187.34
2018-06-15T14:27:37.590Z,101185.59
2018-06-15T14:32:40.603Z,101196.36
2018-06-15T14:37:43.570Z,101192.07
2018-06-15T14:42:46.585Z,101190.46
2018-06-15T14:47:49.633Z,101183.47
2018-06-15T14:52:52.642Z,101180.20
2018-06-15T14:57:55.625Z,101154.38
2018-06-15T15:02:58.597Z,101174.03
2018-06-15T15:08:02.524Z,101171.09
2018-06-15T15:13:05.523Z,101177.09
2018-06-15T15:18:09.213Z,101170.64
2018-06-15T15:23:12.934Z,101175.86
2018-06-15T15:28:16.039Z,101171.14
2018-06-15T15:33:19.098Z,101172.16
2018-06-15T15:38:22.179Z,101161.86
2018-06-15T15:43:25.220Z,101162.01
2018-06-15T15:48:28.226Z,101162.22
2018-06-15T15:53:31.222Z,101159.67
2018-06-15T15:58:34.304Z,101157.25
2018-06-15T16:03:37.321Z,101154.75
2018-06-15T16:08:40.310Z,101158.33
2018-06-15T16:13:43.349Z,101149.91
2018-06-15T16:18:48.289Z,101146.22
2018-06-15T16:23:51.365Z,101141.72
2018-06-15T16:28:54.394Z,101110.98
2018-06-15T16:33:57.427Z,101134.23
2018-06-15T16:39:00.434Z,101127.41
2018-06-15T16:44:03.475Z,101131.28
2018-06-15T16:49:06.559Z,101126.88
2018-06-15T16:54:09.558Z,101120.59
2018-06-15T16:59:12.642Z,101121.20
2018-06-15T17:04:15.650Z,101117.69
2018-06-15T17:09:18.654Z,101107.37
2018-06-15T17:14:21.641Z,101114.23
2018-06-15T17:19:24.741Z,101125.33
2018-06-15T17:24:27.687Z,101122.17
2018-06-15T17:29:30.753Z,101131.83
2018-06-15T17:34:33.745Z,101131.11
2018-06-15T17:39:37.326Z,101132.00
2018-06-15T17:44:40.430Z,101139.65
2018-06-15T17:49:43.410Z,101133.68
2018-06-15T17:54:46.492Z,101137.59
2018-06-15T17:59:49.550Z,101138.63
2018-06-15T18:04:52.549Z,101143.69
2018-06-15T18:09:55.621Z,101152.16
2018-06-15T18:14:58.671Z,101149.34
2018-06-15T18:20:01.718Z,101152.48
2018-06-15T18:25:05.094Z,101159.06
2018-06-15T18:30:08.264Z,101152.54
2018-06-15T18:35:11.310Z,101154.55
2018-06-15T18:40:14.301Z,101151.27
2018-06-15T18:45:17.298Z,101155.35
2018-06-15T18:50:20.416Z,101152.44
2018-06-15T18:55:23.596Z,101155.73
2018-06-15T19:00:26.739Z,101145.66
2018-06-15T19:05:29.786Z,101143.34
2018-06-15T19:10:32.814Z,101148.14
2018-06-15T19:15:35.872Z,101143.98
2018-06-15T19:20:38.909Z,101147.67
2018-06-15T19:25:41.987Z,101144.33
2018-06-15T19:30:45.059Z,101144.59
2018-06-15T19:35:48.392Z,101151.05
2018-06-15T19:40:51.406Z,101149.59
2018-06-15T19:45:54.398Z,101152.64
2018-06-15T19:50:57.385Z,101154.46
2018-06-15T19:56:00.393Z,101154.84
2018-06-15T20:01:04.633Z,101154.50
2018-06-15T20:06:09.293Z,101157.67
2018-06-15T20:11:13.676Z,101152.70
2018-06-15T20:16:17.704Z,101152.81
2018-06-15T20:21:21.966Z,101158.37
2018-06-15T20:26:26.037Z,101153.25
2018-06-15T20:31:30.094Z,101152.64
2018-06-15T20:36:35.093Z,101146.54
2018-06-15T20:41:39.776Z,101150.14
2018-06-15T20:46:43.777Z,101146.45
2018-06-15T20:51:48.136Z,101144.32
2018-06-15T20:56:52.338Z,101145.03
2018-06-15T21:01:55.745Z,101140.05
2018-06-15T21:06:59.810Z,101134.06
2018-06-15T21:12:03.940Z,101134.16
2018-06-15T21:17:08.312Z,101136.19
2018-06-15T21:22:12.371Z,101130.87
2018-06-15T21:27:16.335Z,101133.92
2018-06-15T21:37:23.066Z,101133.22
2018-06-15T21:42:27.698Z,101135.67
2018-06-15T21:47:33.564Z,101135.41
2018-06-15T21:52:37.126Z,101131.80
2018-06-15T21:57:41.152Z,101128.28
2018-06-15T22:02:45.710Z,101119.71
2018-06-15T22:07:50.561Z,101118.09
2018-06-15T22:12:54.831Z,101112.43
2018-06-15T22:17:57.941Z,101113.93
2018-06-15T22:23:00.994Z,101113.12
2018-06-15T22:28:04.000Z,101112.70
2018-06-15T22:33:07.070Z,101118.08
2018-06-15T22:38:10.129Z,101115.14
2018-06-15T22:43:13.151Z,101115.80
2018-06-15T22:48:16.205Z,101120.08
2018-06-15T22:53:19.201Z,101119.19
2018-06-15T22:58:22.259Z,101118.02
2018-06-15T23:03:25.285Z,101119.78
2018-06-15T23:08:28.294Z,101123.77
2018-06-15T23:13:31.330Z,101122.36
2018-06-15T23:18:34.363Z,101126.49
2018-06-15T23:23:37.368Z,101123.37
2018-06-15T23:28:40.415Z,101123.26
2018-06-15T23:33:43.423Z,101118.63
2018-06-15T23:38:46.410Z,101123.94
2018-06-15T23:43:49.441Z,101122.14
2018-06-15T23:48:52.450Z,101121.65
2018-06-15T23:53:55.489Z,101124.29
2018-06-15T23:58:58.526Z,101131.84
